Terminal Aerodrome Forecast
Issued by NWS

Home | Current Version | Previous Version | Graphics & Text | Print | Product List | Glossary On
Versions: 1 2 3 4 5 6 7 8 9 10 11 12 13 14 15 16 17 18 19 20 21 22 23 24
000
FTUS43 KTOP 171100
TAFFOE
TAF
KFOE 171136Z 1712/1812 04007KT P6SM BKN017
     FM171500 09004KT P6SM SCT018 BKN070
     FM180000 11004KT P6SM VCSH OVC035
     FM180200 12007KT 4SM -SN BR OVC013
     FM180600 09007KT 1 1/2SM -SN BR OVC005=

USA.gov is the U.S. government's official web portal to all federal, state and local government web resources and services.